Time;durP1;ratioP1;P1;durP2;ratioP2;P2;SDS_P1;SDS_P2;PMS_P1;PMS_P2;Temp;Humidity;BMP_temperature;BMP_pressure;BME280_temperature;BME280_humidity;BME280_pressure;Samples;Min_cycle;Max_cycle;Signal;HPM_P1;HPM_P2
2022/07/10 00:00:11;;;;;;;6.30;1.42;;;22.40;72.10;;;;;;5014150;28;20022;-73
2022/07/10 00:02:37;;;;;;;4.93;1.23;;;22.40;72.30;;;;;;5014038;28;20018;-73
2022/07/10 00:05:04;;;;;;;4.53;1.05;;;22.40;72.50;;;;;;5014042;28;20026;-72
2022/07/10 00:07:30;;;;;;;3.20;0.98;;;22.40;72.60;;;;;;5013899;28;20056;-72
2022/07/10 00:09:56;;;;;;;5.20;1.25;;;22.40;72.50;;;;;;5013498;28;20053;-72
2022/07/10 00:12:21;;;;;;;3.72;1.23;;;22.40;72.60;;;;;;5014065;28;20065;-73
2022/07/10 00:14:47;;;;;;;3.65;1.13;;;22.30;72.70;;;;;;5013980;28;20061;-72
2022/07/10 00:17:12;;;;;;;5.00;1.20;;;22.30;72.70;;;;;;5013846;28;20108;-72
2022/07/10 00:19:38;;;;;;;2.22;1.05;;;22.30;72.70;;;;;;5013443;28;20049;-72
2022/07/10 00:22:04;;;;;;;3.45;1.13;;;22.30;72.80;;;;;;5013483;28;20029;-72
2022/07/10 00:24:29;;;;;;;3.35;1.10;;;22.30;72.70;;;;;;5013703;28;20415;-72
2022/07/10 00:26:55;;;;;;;4.00;1.40;;;22.30;72.90;;;;;;5013552;28;20431;-71
2022/07/10 00:29:21;;;;;;;1.95;0.88;;;22.30;72.70;;;;;;5013556;28;20030;-72
2022/07/10 00:31:47;;;;;;;2.83;1.00;;;22.20;72.80;;;;;;5013363;28;20018;-72
2022/07/10 00:34:12;;;;;;;3.47;1.15;;;22.20;72.80;;;;;;5013520;28;20072;-72
2022/07/10 00:36:38;;;;;;;2.83;0.75;;;22.30;72.60;;;;;;5012884;28;20040;-72
2022/07/10 00:39:04;;;;;;;4.82;0.95;;;22.20;73.70;;;;;;5013278;28;20020;-72
2022/07/10 00:41:29;;;;;;;7.47;1.35;;;22.20;72.60;;;;;;5013145;28;20502;-71
2022/07/10 00:43:57;;;;;;;3.95;0.98;;;22.30;72.90;;;;;;5013326;28;20029;-72
2022/07/10 00:46:27;;;;;;;1.95;0.90;;;22.20;73.20;;;;;;4995907;28;20475;-72
2022/07/10 00:48:53;;;;;;;2.58;0.80;;;22.20;72.90;;;;;;4995753;28;20041;-72
2022/07/10 00:51:21;;;;;;;3.13;0.98;;;22.20;73.00;;;;;;5014327;28;20391;-72
2022/07/10 00:53:48;;;;;;;3.80;1.17;;;22.10;72.80;;;;;;5017580;28;20523;-72
2022/07/10 00:56:21;;;;;;;3.78;1.45;;;22.20;72.80;;;;;;5017238;28;20099;-72
2022/07/10 00:58:47;;;;;;;3.33;1.20;;;22.20;72.70;;;;;;5017491;28;20155;-72
2022/07/10 01:01:14;;;;;;;4.43;1.13;;;22.20;72.70;;;;;;5017210;28;20430;-73
2022/07/10 01:03:40;;;;;;;3.60;1.17;;;22.10;72.80;;;;;;5017174;28;20431;-72
2022/07/10 01:06:06;;;;;;;2.42;0.90;;;22.10;72.80;;;;;;5016841;28;20456;-73
2022/07/10 01:08:33;;;;;;;3.35;1.20;;;22.10;72.80;;;;;;5017229;28;20039;-73
2022/07/10 01:10:59;;;;;;;2.65;0.90;;;22.10;72.90;;;;;;5017060;28;20469;-73
2022/07/10 01:13:24;;;;;;;8.25;1.60;;;22.10;72.90;;;;;;5016954;28;20072;-72
2022/07/10 01:15:52;;;;;;;2.50;0.80;;;22.00;73.00;;;;;;5016784;28;20049;-72
2022/07/10 01:18:18;;;;;;;2.60;1.08;;;22.10;73.00;;;;;;5017027;28;20014;-72
2022/07/10 01:20:43;;;;;;;4.50;1.48;;;22.10;73.00;;;;;;5016435;28;20022;-73
2022/07/10 01:23:09;;;;;;;3.25;0.98;;;22.00;73.00;;;;;;5016901;28;20026;-72
2022/07/10 01:25:35;;;;;;;3.22;1.15;;;22.00;73.00;;;;;;5016695;28;20018;-73
2022/07/10 01:28:00;;;;;;;2.33;1.38;;;22.00;73.00;;;;;;5016913;28;20498;-72
2022/07/10 01:30:26;;;;;;;3.47;1.20;;;22.00;73.30;;;;;;5016805;28;20380;-72
2022/07/10 01:32:52;;;;;;;2.47;1.00;;;21.90;73.10;;;;;;5016468;28;20030;-72
2022/07/10 01:35:18;;;;;;;5.28;1.02;;;22.00;73.90;;;;;;5016214;28;20033;-72
2022/07/10 01:37:44;;;;;;;3.78;1.17;;;22.00;73.20;;;;;;5016444;28;20489;-71
2022/07/10 01:40:11;;;;;;;2.67;1.00;;;22.00;73.00;;;;;;5016427;28;20030;-72
2022/07/10 01:42:37;;;;;;;4.82;1.02;;;22.00;73.50;;;;;;5016602;28;20495;-71
2022/07/10 01:45:07;;;;;;;4.28;0.88;;;22.00;73.40;;;;;;4998795;28;20034;-72
2022/07/10 01:47:33;;;;;;;2.95;1.23;;;21.90;73.60;;;;;;5016127;28;20119;-72
2022/07/10 01:49:59;;;;;;;3.55;0.98;;;21.90;73.60;;;;;;5016172;28;20057;-72
2022/07/10 01:52:25;;;;;;;2.00;1.10;;;21.90;73.60;;;;;;5016227;28;20026;-72
2022/07/10 01:54:51;;;;;;;2.20;0.73;;;21.90;73.70;;;;;;5016160;28;20116;-72
2022/07/10 01:57:16;;;;;;;5.30;1.48;;;21.80;73.80;;;;;;5016018;28;20030;-72
2022/07/10 01:59:42;;;;;;;3.65;1.50;;;21.80;73.80;;;;;;5016307;28;20062;-72
2022/07/10 02:02:08;;;;;;;4.40;1.45;;;21.80;74.00;;;;;;5016141;28;20022;-72
2022/07/10 02:04:43;;;;;;;2.45;1.33;;;21.80;74.10;;;;;;5014744;28;20073;-72
2022/07/10 02:07:14;;;;;;;3.78;1.58;;;21.80;74.20;;;;;;5016258;28;20050;-71
2022/07/10 02:09:40;;;;;;;4.72;1.92;;;21.80;74.20;;;;;;5016521;28;20032;-71
2022/07/10 02:12:08;;;;;;;3.67;1.55;;;21.70;74.00;;;;;;4998685;28;20030;-72
2022/07/10 02:14:34;;;;;;;3.60;1.63;;;21.70;74.20;;;;;;5015793;28;20029;-72
2022/07/10 02:17:00;;;;;;;4.50;1.95;;;21.70;74.50;;;;;;5016013;28;20030;-71
2022/07/10 02:19:26;;;;;;;3.42;1.65;;;21.70;74.40;;;;;;5015504;28;20036;-72
2022/07/10 02:21:51;;;;;;;4.63;1.60;;;21.70;74.70;;;;;;5015757;28;20037;-72
2022/07/10 02:24:17;;;;;;;4.82;1.55;;;21.70;74.70;;;;;;5015791;28;20049;-72
2022/07/10 02:26:43;;;;;;;3.50;1.75;;;21.60;75.20;;;;;;5015463;28;20026;-72
2022/07/10 02:29:09;;;;;;;3.22;1.70;;;21.60;74.70;;;;;;5015793;28;20072;-72
2022/07/10 02:31:40;;;;;;;3.53;1.38;;;21.60;74.80;;;;;;5015630;28;20498;-72
2022/07/10 02:34:09;;;;;;;3.72;1.60;;;21.60;74.60;;;;;;5015398;28;20022;-72
2022/07/10 02:36:36;;;;;;;4.20;1.33;;;21.60;74.70;;;;;;5015171;28;20475;-72
2022/07/10 02:39:02;;;;;;;5.00;1.70;;;21.60;74.80;;;;;;5015613;28;20112;-72
2022/07/10 02:41:28;;;;;;;2.63;0.88;;;21.50;74.60;;;;;;5015217;28;20026;-73
2022/07/10 02:43:53;;;;;;;2.88;1.25;;;21.50;74.90;;;;;;5015241;28;20509;-72
2022/07/10 02:46:19;;;;;;;4.13;1.88;;;21.50;74.80;;;;;;5014995;28;20044;-72
2022/07/10 02:48:44;;;;;;;3.83;1.40;;;21.50;74.80;;;;;;5014929;28;20033;-72
2022/07/10 02:51:10;;;;;;;3.30;1.75;;;21.50;74.90;;;;;;5015369;28;20110;-73
2022/07/10 02:53:36;;;;;;;2.75;1.15;;;21.50;75.20;;;;;;5015247;28;20531;-72
2022/07/10 02:56:01;;;;;;;3.95;1.42;;;21.50;75.00;;;;;;5015078;28;20100;-72
2022/07/10 02:58:27;;;;;;;4.60;1.50;;;21.50;75.10;;;;;;5015071;28;20206;-72
2022/07/10 03:00:53;;;;;;;5.00;1.55;;;21.50;74.90;;;;;;5014842;28;20029;-73
2022/07/10 03:03:18;;;;;;;3.88;1.80;;;21.40;74.90;;;;;;5012896;28;20097;-72
2022/07/10 03:05:45;;;;;;;2.97;1.35;;;21.40;75.00;;;;;;5013591;28;20069;-73
2022/07/10 03:08:11;;;;;;;3.53;1.45;;;21.40;75.20;;;;;;5013142;28;20032;-72
2022/07/10 03:10:36;;;;;;;3.40;1.50;;;21.40;75.10;;;;;;5013654;28;20034;-73
2022/07/10 03:13:02;;;;;;;3.88;1.70;;;21.40;75.10;;;;;;5015065;28;20026;-73
2022/07/10 03:15:27;;;;;;;2.22;1.35;;;21.40;75.40;;;;;;5014250;28;20041;-72
2022/07/10 03:17:53;;;;;;;2.83;1.08;;;21.40;75.50;;;;;;5014578;28;20026;-73
2022/07/10 03:20:18;;;;;;;2.50;1.45;;;21.30;75.40;;;;;;5013376;28;20087;-72
2022/07/10 03:22:44;;;;;;;3.13;1.58;;;21.40;75.30;;;;;;5014563;28;20022;-72
2022/07/10 03:25:10;;;;;;;3.75;1.25;;;21.30;75.50;;;;;;5014685;28;20022;-72
2022/07/10 03:27:36;;;;;;;4.85;1.80;;;21.30;75.60;;;;;;5014646;28;20101;-72
2022/07/10 03:30:02;;;;;;;3.67;1.55;;;21.30;75.60;;;;;;5014304;28;20037;-72
2022/07/10 03:32:28;;;;;;;3.13;1.10;;;21.30;75.50;;;;;;5014657;28;20025;-72
2022/07/10 03:34:53;;;;;;;3.50;1.23;;;21.30;75.50;;;;;;5014182;28;20025;-72
2022/07/10 03:37:19;;;;;;;6.00;1.42;;;21.30;75.60;;;;;;5014626;28;20491;-71
2022/07/10 03:39:44;;;;;;;4.72;1.58;;;21.30;75.50;;;;;;5014407;28;20029;-72
2022/07/10 03:42:10;;;;;;;3.10;1.70;;;21.30;75.50;;;;;;5014349;28;20038;-71
2022/07/10 03:44:35;;;;;;;3.17;1.73;;;21.30;75.30;;;;;;5013781;28;20041;-71
2022/07/10 03:47:02;;;;;;;3.22;1.23;;;21.20;75.50;;;;;;5014269;28;20478;-72
2022/07/10 03:49:27;;;;;;;4.75;1.75;;;21.30;75.50;;;;;;5013915;28;20014;-72
2022/07/10 03:51:53;;;;;;;4.03;1.50;;;21.20;75.60;;;;;;5014177;28;20386;-72
2022/07/10 03:54:19;;;;;;;3.95;1.45;;;21.20;75.50;;;;;;5014186;28;20388;-72
2022/07/10 03:59:29;;;;;;;2.80;1.25;;;21.20;75.80;;;;;;5014006;28;20442;-72
2022/07/10 04:01:54;;;;;;;4.03;1.77;;;21.20;76.00;;;;;;5014036;28;20459;-72
2022/07/10 04:04:20;;;;;;;2.45;1.27;;;21.20;76.00;;;;;;5013777;28;20137;-72
2022/07/10 04:06:45;;;;;;;3.05;1.45;;;21.10;76.00;;;;;;5013860;28;20033;-71
2022/07/10 04:09:14;;;;;;;4.00;1.65;;;21.10;76.00;;;;;;5013831;28;20030;-72
2022/07/10 04:11:40;;;;;;;3.65;1.38;;;21.10;76.10;;;;;;5013699;28;20479;-71
2022/07/10 04:14:05;;;;;;;2.72;1.40;;;21.10;76.10;;;;;;5013550;28;20030;-71
2022/07/10 04:16:31;;;;;;;3.03;1.63;;;21.20;76.20;;;;;;5012291;28;20410;-72
2022/07/10 04:18:56;;;;;;;3.75;1.55;;;21.10;76.40;;;;;;5013681;28;20076;-72
2022/07/10 04:21:22;;;;;;;5.55;1.45;;;21.10;76.40;;;;;;5013927;28;20468;-72
2022/07/10 04:23:48;;;;;;;4.30;1.58;;;21.10;76.40;;;;;;4996447;28;20025;-71
2022/07/10 04:26:14;;;;;;;3.10;1.70;;;21.10;76.30;;;;;;5013427;28;20475;-72
2022/07/10 04:28:39;;;;;;;3.80;1.67;;;21.10;76.60;;;;;;5014858;28;20479;-73
2022/07/10 04:31:05;;;;;;;3.70;1.70;;;21.10;76.70;;;;;;5014261;28;20033;-72
2022/07/10 04:33:30;;;;;;;4.13;1.70;;;21.10;76.40;;;;;;5013635;28;20025;-72
2022/07/10 04:35:56;;;;;;;4.15;1.73;;;21.10;76.30;;;;;;5013263;28;20391;-72
2022/07/10 04:38:21;;;;;;;4.65;1.85;;;21.10;76.40;;;;;;5013327;28;20498;-73
2022/07/10 04:40:47;;;;;;;4.22;1.88;;;21.10;76.50;;;;;;5013434;28;20022;-72
2022/07/10 04:43:12;;;;;;;6.15;1.80;;;21.10;76.70;;;;;;5013202;28;20030;-72
2022/07/10 04:45:38;;;;;;;3.72;1.58;;;21.10;76.60;;;;;;5013313;28;20048;-72
2022/07/10 04:48:07;;;;;;;3.28;1.42;;;21.00;76.60;;;;;;5013141;28;20025;-72
2022/07/10 04:50:32;;;;;;;4.18;1.60;;;21.10;76.80;;;;;;5013363;28;20018;-72
2022/07/10 04:52:58;;;;;;;2.63;1.52;;;21.10;76.80;;;;;;5013547;28;20369;-72
2022/07/10 04:55:23;;;;;;;2.22;1.38;;;21.00;76.90;;;;;;5013244;28;20395;-72
2022/07/10 04:57:49;;;;;;;4.05;1.60;;;21.00;77.10;;;;;;5013034;28;20018;-72
2022/07/10 05:00:15;;;;;;;2.90;1.58;;;21.10;76.90;;;;;;5012582;28;20030;-73
2022/07/10 05:02:41;;;;;;;3.40;1.38;;;21.10;76.90;;;;;;5012434;28;20033;-72
2022/07/10 05:05:07;;;;;;;2.67;1.50;;;21.10;77.10;;;;;;5012647;28;20033;-72
2022/07/10 05:07:32;;;;;;;3.42;1.40;;;21.10;77.10;;;;;;5012168;28;20026;-72
2022/07/10 05:09:58;;;;;;;5.25;1.60;;;21.10;77.30;;;;;;5011833;28;20026;-72
2022/07/10 05:12:23;;;;;;;5.15;1.45;;;21.10;77.50;;;;;;5012627;28;20056;-71
2022/07/10 05:14:49;;;;;;;3.70;1.65;;;21.10;77.20;;;;;;5012892;28;20026;-72
2022/07/10 05:17:14;;;;;;;3.45;1.48;;;21.10;77.30;;;;;;5013171;28;20042;-72
2022/07/10 05:19:40;;;;;;;4.82;1.58;;;21.20;77.30;;;;;;5013070;28;20014;-72
2022/07/10 05:22:05;;;;;;;3.58;1.48;;;21.10;77.20;;;;;;5012928;28;20538;-73
2022/07/10 05:24:31;;;;;;;2.83;1.05;;;21.20;77.20;;;;;;5013153;28;20475;-72
2022/07/10 05:26:57;;;;;;;2.17;0.90;;;21.10;77.30;;;;;;5012494;28;20479;-72
2022/07/10 05:29:22;;;;;;;5.10;1.20;;;21.20;77.30;;;;;;5013330;28;20104;-72
2022/07/10 05:31:48;;;;;;;3.00;1.30;;;21.20;77.20;;;;;;5012968;28;20068;-71
2022/07/10 05:34:13;;;;;;;2.00;1.20;;;21.20;77.10;;;;;;5013077;28;20033;-71
2022/07/10 05:36:39;;;;;;;2.72;1.10;;;21.20;77.10;;;;;;5012791;28;20034;-71
2022/07/10 05:39:04;;;;;;;5.38;1.40;;;21.20;77.30;;;;;;5016474;28;20088;-71
2022/07/10 05:41:32;;;;;;;2.78;1.20;;;21.20;77.30;;;;;;5016340;28;20353;-71
2022/07/10 05:43:58;;;;;;;2.53;1.05;;;21.20;77.60;;;;;;5016716;28;20030;-71
2022/07/10 05:46:24;;;;;;;4.60;1.23;;;21.20;78.40;;;;;;5016816;28;20029;-72
2022/07/10 05:48:49;;;;;;;3.60;1.50;;;21.20;78.20;;;;;;4999214;28;20014;-72
2022/07/10 05:51:15;;;;;;;4.00;1.13;;;21.20;78.00;;;;;;5016427;28;20590;-72
2022/07/10 05:53:41;;;;;;;2.60;1.13;;;21.30;78.10;;;;;;5016410;28;20427;-71
2022/07/10 05:56:06;;;;;;;2.70;0.93;;;21.30;77.40;;;;;;5015787;28;20080;-72
2022/07/10 05:58:32;;;;;;;3.22;1.17;;;21.40;77.20;;;;;;4998750;28;20034;-72
2022/07/10 06:00:57;;;;;;;1.95;0.82;;;21.50;77.10;;;;;;5016476;28;20021;-72
2022/07/10 06:03:24;;;;;;;3.38;0.95;;;21.50;76.80;;;;;;5016255;28;20399;-72
2022/07/10 06:05:49;;;;;;;5.53;1.52;;;21.50;77.30;;;;;;5015919;28;20034;-72
2022/07/10 06:08:15;;;;;;;4.13;0.93;;;21.60;77.20;;;;;;5016053;28;20080;-72
2022/07/10 06:10:40;;;;;;;4.45;1.23;;;21.70;77.00;;;;;;5015927;28;20065;-72
2022/07/10 06:13:07;;;;;;;3.35;1.15;;;21.70;76.60;;;;;;5015875;28;20030;-72
2022/07/10 06:15:33;;;;;;;2.60;1.13;;;21.70;76.70;;;;;;5015899;28;20038;-72
2022/07/10 06:17:58;;;;;;;2.53;0.85;;;21.80;76.20;;;;;;5015640;28;20476;-72
2022/07/10 06:20:27;;;;;;;5.53;0.90;;;21.80;75.80;;;;;;5016021;28;20044;-71
2022/07/10 06:22:52;;;;;;;3.42;0.73;;;21.80;75.50;;;;;;5015707;28;20025;-72
2022/07/10 06:25:18;;;;;;;5.65;1.30;;;21.80;75.50;;;;;;4998196;28;20048;-72
2022/07/10 06:27:44;;;;;;;2.58;0.70;;;21.90;75.40;;;;;;5015709;28;20033;-72
2022/07/10 06:30:10;;;;;;;3.08;0.90;;;21.90;75.50;;;;;;5015750;28;20384;-72
2022/07/10 06:32:36;;;;;;;3.20;0.93;;;21.90;75.60;;;;;;5015557;28;20390;-72
2022/07/10 06:35:03;;;;;;;4.15;1.17;;;21.90;75.50;;;;;;5015407;28;20483;-72
2022/07/10 06:37:30;;;;;;;2.05;1.08;;;21.90;75.40;;;;;;5015358;28;20506;-72
2022/07/10 06:39:55;;;;;;;4.47;1.02;;;21.90;75.60;;;;;;5015065;28;20105;-72
2022/07/10 06:42:21;;;;;;;4.03;0.90;;;21.90;75.60;;;;;;5015677;28;20563;-72
2022/07/10 06:44:46;;;;;;;2.65;1.02;;;21.90;75.50;;;;;;5015511;28;20030;-72
2022/07/10 06:49:59;;;;;;;1.88;0.88;;;22.00;75.70;;;;;;5015013;28;20033;-72
2022/07/10 06:52:25;;;;;;;2.40;0.80;;;22.00;75.60;;;;;;5015224;28;20022;-72
2022/07/10 06:54:52;;;;;;;3.15;0.93;;;22.00;75.70;;;;;;5014979;28;20018;-72
2022/07/10 06:57:19;;;;;;;3.65;0.90;;;21.90;75.80;;;;;;5014838;28;20033;-72
2022/07/10 06:59:45;;;;;;;2.05;0.63;;;21.90;76.00;;;;;;5015349;28;20052;-72
2022/07/10 07:02:10;;;;;;;1.88;0.70;;;21.90;76.00;;;;;;5015075;28;20057;-72
2022/07/10 07:04:36;;;;;;;2.20;0.70;;;22.00;76.20;;;;;;5015468;28;20463;-72
2022/07/10 07:07:02;;;;;;;2.13;0.90;;;22.00;75.90;;;;;;5015282;28;20080;-72
2022/07/10 07:09:28;;;;;;;4.55;1.20;;;22.00;76.30;;;;;;5014744;28;20483;-72
2022/07/10 07:11:53;;;;;;;4.35;1.02;;;21.90;76.20;;;;;;5014995;28;20030;-72
2022/07/10 07:14:19;;;;;;;3.05;0.73;;;22.00;76.30;;;;;;5014820;28;20033;-72
2022/07/10 07:16:46;;;;;;;2.83;0.90;;;22.00;76.30;;;;;;5014827;28;20460;-72
2022/07/10 07:19:17;;;;;;;4.45;0.90;;;22.10;76.40;;;;;;5014622;28;20076;-72
2022/07/10 07:24:27;;;;;;;2.50;0.98;;;22.10;76.90;;;;;;5015049;28;20091;-72
2022/07/10 07:26:53;;;;;;;5.15;1.27;;;22.00;77.50;;;;;;5014534;28;20022;-72
2022/07/10 07:29:18;;;;;;;2.97;0.90;;;22.00;77.60;;;;;;5014626;28;20018;-72
2022/07/10 07:31:45;;;;;;;3.75;1.00;;;22.00;77.00;;;;;;5015055;28;20363;-72
2022/07/10 07:34:11;;;;;;;4.10;0.80;;;22.10;76.50;;;;;;5014551;28;20176;-72
2022/07/10 07:36:37;;;;;;;2.78;0.80;;;22.10;76.40;;;;;;4996613;28;20033;-72
2022/07/10 07:39:03;;;;;;;2.55;0.80;;;22.10;76.40;;;;;;5014272;28;20018;-72
2022/07/10 07:41:29;;;;;;;2.40;0.75;;;22.10;75.80;;;;;;5014338;28;20099;-72
2022/07/10 07:43:54;;;;;;;2.85;0.77;;;22.20;75.40;;;;;;5014125;28;20481;-72
2022/07/10 07:46:21;;;;;;;4.38;1.15;;;22.20;76.10;;;;;;5014201;28;20034;-72
2022/07/10 07:48:46;;;;;;;2.80;0.57;;;22.20;76.00;;;;;;5014213;28;20022;-72
2022/07/10 07:51:13;;;;;;;3.88;0.68;;;22.30;75.90;;;;;;5013949;28;20369;-72
2022/07/10 07:53:38;;;;;;;3.72;0.95;;;22.30;75.10;;;;;;5014048;28;20455;-72
2022/07/10 07:56:04;;;;;;;2.80;0.75;;;22.30;74.40;;;;;;5013862;28;20034;-72
2022/07/10 07:58:30;;;;;;;2.45;0.68;;;22.40;74.40;;;;;;5014135;28;20376;-72
2022/07/10 08:00:56;;;;;;;2.45;0.70;;;22.40;74.40;;;;;;5013161;28;20037;-72
2022/07/10 08:03:22;;;;;;;6.10;0.80;;;22.40;74.40;;;;;;5014022;28;20022;-72
2022/07/10 08:05:48;;;;;;;3.63;0.65;;;22.50;74.20;;;;;;5013615;28;20142;-72
2022/07/10 08:08:13;;;;;;;4.22;1.00;;;22.50;73.60;;;;;;5014066;28;20468;-72
2022/07/10 08:10:39;;;;;;;3.97;0.70;;;22.50;73.60;;;;;;5013729;28;20041;-72
2022/07/10 08:13:05;;;;;;;4.90;1.08;;;22.50;73.30;;;;;;5013784;28;20145;-72
2022/07/10 08:15:30;;;;;;;2.15;0.70;;;22.60;73.70;;;;;;5013623;28;20025;-72
2022/07/10 08:17:57;;;;;;;3.75;0.60;;;22.60;73.00;;;;;;5013659;28;20029;-72
2022/07/10 08:20:25;;;;;;;3.00;0.80;;;22.60;72.70;;;;;;5013096;28;20398;-72
2022/07/10 08:22:52;;;;;;;2.33;0.73;;;22.60;73.10;;;;;;5013996;28;20026;-72
2022/07/10 08:25:18;;;;;;;4.00;1.17;;;22.60;73.20;;;;;;5013765;28;20026;-72
2022/07/10 08:27:44;;;;;;;2.63;0.73;;;22.70;73.10;;;;;;5013823;28;20475;-72
2022/07/10 08:30:10;;;;;;;4.72;1.02;;;22.70;73.50;;;;;;5013495;28;20026;-72
2022/07/10 08:32:37;;;;;;;5.32;1.20;;;22.70;73.50;;;;;;5013624;28;20032;-72
2022/07/10 08:35:03;;;;;;;4.05;0.98;;;22.70;72.70;;;;;;5013159;28;20053;-72
2022/07/10 08:37:28;;;;;;;2.63;0.90;;;22.70;72.60;;;;;;5013453;28;20049;-72
2022/07/10 08:39:54;;;;;;;3.78;0.93;;;22.70;73.40;;;;;;5013386;28;20024;-72
2022/07/10 08:42:21;;;;;;;5.95;1.00;;;22.80;72.70;;;;;;5013397;28;20395;-72
2022/07/10 08:44:46;;;;;;;2.63;0.73;;;22.80;72.20;;;;;;5013136;28;20066;-72
2022/07/10 08:47:12;;;;;;;3.45;0.82;;;22.80;72.60;;;;;;5013612;28;20060;-72
2022/07/10 08:49:46;;;;;;;4.65;0.98;;;22.80;73.20;;;;;;5013057;28;20076;-72
2022/07/10 08:52:36;;;;;;;6.80;1.25;;;22.80;73.30;;;;;;5013433;28;20076;-72
2022/07/10 08:55:01;;;;;;;3.58;0.75;;;22.80;73.30;;;;;;5013170;28;20109;-72
2022/07/10 08:57:31;;;;;;;1.70;0.68;;;22.80;72.90;;;;;;5013733;28;20092;-72
2022/07/10 08:59:57;;;;;;;3.38;0.80;;;22.90;73.00;;;;;;4997268;28;20033;-72
2022/07/10 09:02:22;;;;;;;6.65;1.00;;;22.90;73.00;;;;;;5013751;28;20029;-72
2022/07/10 09:04:48;;;;;;;1.60;0.70;;;22.90;72.90;;;;;;5012911;28;20026;-72
2022/07/10 09:07:14;;;;;;;3.72;0.90;;;23.00;73.40;;;;;;5013084;28;20033;-72
2022/07/10 09:09:54;;;;;;;2.38;0.80;;;22.90;73.50;;;;;;5013149;28;20486;-72
2022/07/10 09:12:21;;;;;;;3.05;0.73;;;22.90;73.60;;;;;;5013721;28;20057;-72
2022/07/10 09:14:47;;;;;;;4.80;1.10;;;23.00;72.80;;;;;;4999365;28;20030;-72
2022/07/10 09:17:13;;;;;;;4.07;0.90;;;23.00;72.60;;;;;;5017058;28;20041;-72
2022/07/10 09:19:39;;;;;;;2.88;1.00;;;23.00;73.10;;;;;;5016905;28;20028;-72
2022/07/10 09:22:07;;;;;;;2.30;0.60;;;23.00;72.40;;;;;;5016721;28;20037;-72
2022/07/10 09:24:38;;;;;;;2.85;0.90;;;23.00;72.50;;;;;;5017038;28;20097;-72
2022/07/10 09:27:04;;;;;;;3.15;0.77;;;23.10;72.50;;;;;;5016743;28;20022;-72
2022/07/10 09:29:44;;;;;;;2.05;0.88;;;23.10;72.60;;;;;;5016919;28;20105;-72
2022/07/10 09:32:10;;;;;;;2.25;0.60;;;23.10;73.50;;;;;;5016782;28;20109;-72
2022/07/10 09:37:48;;;;;;;6.07;0.88;;;23.10;73.00;;;;;;5016732;28;20045;-72
2022/07/10 09:40:14;;;;;;;1.88;0.60;;;23.10;71.80;;;;;;5016429;28;20028;-72
2022/07/10 09:42:47;;;;;;;2.88;1.10;;;23.20;71.50;;;;;;5016364;28;20038;-72
2022/07/10 09:45:12;;;;;;;4.68;0.93;;;23.20;71.20;;;;;;4998898;28;20407;-72
2022/07/10 09:47:38;;;;;;;3.78;0.90;;;23.20;72.10;;;;;;5016107;28;20451;-72
2022/07/10 09:50:16;;;;;;;4.70;0.98;;;23.20;72.50;;;;;;5016633;28;20033;-72
2022/07/10 09:52:42;;;;;;;3.17;0.60;;;23.20;71.90;;;;;;5016410;28;20096;-72
2022/07/10 09:55:08;;;;;;;2.92;0.80;;;23.20;71.30;;;;;;5015957;28;20034;-72
2022/07/10 09:57:34;;;;;;;2.88;0.80;;;23.30;71.10;;;;;;5016196;28;20112;-71
2022/07/10 10:00:00;;;;;;;2.38;0.65;;;23.30;71.00;;;;;;5016337;28;20014;-72
2022/07/10 10:02:26;;;;;;;2.72;0.80;;;23.30;72.00;;;;;;5015960;28;20149;-72
2022/07/10 10:04:52;;;;;;;1.83;0.80;;;23.30;71.80;;;;;;5016181;28;20022;-72
2022/07/10 10:07:19;;;;;;;3.28;0.70;;;23.30;72.40;;;;;;5015865;28;20026;-72
2022/07/10 10:09:58;;;;;;;3.00;0.80;;;23.30;72.20;;;;;;5016197;28;20549;-72
2022/07/10 10:12:47;;;;;;;3.85;0.75;;;23.30;72.20;;;;;;5015977;28;20085;-72
2022/07/10 10:15:14;;;;;;;3.42;0.90;;;23.30;72.20;;;;;;5015919;28;20032;-72
2022/07/10 10:17:41;;;;;;;2.65;0.85;;;23.40;72.50;;;;;;5016210;28;20022;-72
2022/07/10 10:22:55;;;;;;;2.08;0.80;;;23.40;72.10;;;;;;5015813;28;20092;-72
2022/07/10 10:25:23;;;;;;;2.13;0.60;;;23.40;72.00;;;;;;5014966;28;20440;-72
2022/07/10 10:27:50;;;;;;;1.75;0.40;;;23.40;71.70;;;;;;5015540;28;20053;-72
2022/07/10 10:30:16;;;;;;;2.05;0.65;;;23.50;71.90;;;;;;5015914;28;20116;-72
2022/07/10 10:32:41;;;;;;;3.85;0.68;;;23.40;71.40;;;;;;5015303;28;20098;-72
2022/07/10 10:35:09;;;;;;;2.85;0.57;;;23.50;71.50;;;;;;5015475;28;20018;-72
2022/07/10 10:37:42;;;;;;;1.85;0.63;;;23.50;71.90;;;;;;5015621;28;20033;-72
2022/07/10 10:40:10;;;;;;;2.63;0.70;;;23.50;71.90;;;;;;5015562;28;20029;-72
2022/07/10 10:42:43;;;;;;;2.88;0.70;;;23.50;71.90;;;;;;5015383;28;20022;-72
2022/07/10 10:45:22;;;;;;;2.17;0.60;;;23.50;71.80;;;;;;5015124;28;20083;-72
2022/07/10 10:47:59;;;;;;;1.85;0.68;;;23.50;72.00;;;;;;5015063;28;20021;-72
2022/07/10 10:50:40;;;;;;;3.33;0.60;;;23.60;72.10;;;;;;5015537;28;20021;-72
2022/07/10 10:53:16;;;;;;;1.88;0.40;;;23.50;71.60;;;;;;5015250;28;20036;-72
2022/07/10 10:56:01;;;;;;;3.00;0.80;;;23.60;71.70;;;;;;5014989;28;20117;-72
2022/07/10 10:58:35;;;;;;;4.30;0.70;;;23.60;71.70;;;;;;5014897;28;20022;-72
2022/07/10 11:01:30;;;;;;;1.73;0.73;;;23.60;71.90;;;;;;5015035;28;20022;-72
2022/07/10 11:04:04;;;;;;;2.33;0.50;;;23.60;71.80;;;;;;5006010;28;20033;-72
2022/07/10 11:06:48;;;;;;;1.92;0.60;;;23.60;71.90;;;;;;5014951;28;20113;-72
2022/07/10 11:09:27;;;;;;;2.05;0.50;;;23.60;71.70;;;;;;5014931;28;20026;-72
2022/07/10 11:12:05;;;;;;;2.95;0.80;;;23.70;71.70;;;;;;5014873;28;20030;-72
2022/07/10 11:14:33;;;;;;;1.20;0.32;;;23.60;71.50;;;;;;5015122;28;20029;-72
2022/07/10 11:16:59;;;;;;;1.23;0.50;;;23.70;71.60;;;;;;5014916;28;20042;-72
2022/07/10 11:19:30;;;;;;;3.45;0.60;;;23.70;70.30;;;;;;5015548;28;20025;-72
2022/07/10 11:22:05;;;;;;;1.37;0.63;;;23.70;71.00;;;;;;5017052;28;20065;-72
2022/07/10 11:24:42;;;;;;;2.42;0.70;;;23.70;71.40;;;;;;5014792;28;20026;-72
2022/07/10 11:27:29;;;;;;;1.83;0.50;;;23.70;71.10;;;;;;5014779;28;20018;-72
2022/07/10 11:29:59;;;;;;;0.80;0.40;;;23.70;70.90;;;;;;5014405;28;20033;-72
2022/07/10 11:32:25;;;;;;;1.33;0.45;;;23.80;71.00;;;;;;5014667;28;20021;-72
2022/07/10 11:34:51;;;;;;;1.30;0.50;;;23.80;70.90;;;;;;5014345;28;20109;-72
2022/07/10 11:37:16;;;;;;;1.88;0.75;;;23.80;71.00;;;;;;5014266;28;20534;-72
2022/07/10 11:39:42;;;;;;;1.10;0.40;;;23.80;71.00;;;;;;5014180;28;20034;-72
2022/07/10 11:42:08;;;;;;;2.13;0.70;;;23.80;71.10;;;;;;5014773;28;20037;-72
2022/07/10 11:44:34;;;;;;;2.33;0.40;;;23.90;70.20;;;;;;5014396;28;20507;-72
2022/07/10 11:47:00;;;;;;;1.30;0.50;;;23.90;70.30;;;;;;5015347;28;20037;-72
2022/07/10 11:49:27;;;;;;;1.52;0.40;;;23.90;70.60;;;;;;5015196;28;20022;-72
2022/07/10 11:51:53;;;;;;;1.27;0.40;;;23.80;71.00;;;;;;5014167;28;20037;-72
2022/07/10 11:54:19;;;;;;;1.63;0.50;;;23.90;71.10;;;;;;5014110;28;20049;-72
2022/07/10 11:56:52;;;;;;;2.00;0.70;;;23.90;71.30;;;;;;5014045;28;20073;-72
2022/07/10 11:59:22;;;;;;;1.85;0.40;;;23.80;71.10;;;;;;5013697;28;20026;-72
2022/07/10 12:01:51;;;;;;;1.20;0.35;;;23.90;71.10;;;;;;5013708;28;20030;-72
2022/07/10 12:04:24;;;;;;;1.25;0.43;;;23.90;71.10;;;;;;5014013;28;20157;-72
2022/07/10 12:06:50;;;;;;;1.05;0.35;;;23.90;71.00;;;;;;5013670;28;20379;-72
2022/07/10 12:09:18;;;;;;;1.35;0.50;;;23.90;71.00;;;;;;5013888;28;20030;-72
2022/07/10 12:11:57;;;;;;;1.67;0.32;;;23.90;71.00;;;;;;5013763;28;20029;-72
2022/07/10 12:14:22;;;;;;;1.23;0.32;;;23.90;71.00;;;;;;5013826;28;20121;-72
2022/07/10 12:16:52;;;;;;;1.83;0.60;;;23.90;71.00;;;;;;5013541;28;20113;-72
2022/07/10 12:19:30;;;;;;;1.23;0.60;;;23.90;71.00;;;;;;5013639;28;20050;-72
2022/07/10 12:21:57;;;;;;;2.60;0.50;;;24.00;70.90;;;;;;5013919;28;20014;-72
2022/07/10 12:24:24;;;;;;;1.25;0.43;;;24.00;70.30;;;;;;5013600;28;20554;-72
2022/07/10 12:26:52;;;;;;;1.83;0.70;;;24.00;70.60;;;;;;5013314;28;20081;-72
2022/07/10 12:29:21;;;;;;;1.60;0.57;;;24.00;70.80;;;;;;4995850;28;20121;-73
2022/07/10 12:31:55;;;;;;;1.55;0.40;;;24.00;70.90;;;;;;5013521;28;20567;-72
2022/07/10 12:34:36;;;;;;;1.77;0.40;;;24.00;71.00;;;;;;5013950;28;20022;-72
2022/07/10 12:37:09;;;;;;;1.13;0.32;;;24.00;71.00;;;;;;5013480;28;20030;-72
2022/07/10 12:39:49;;;;;;;1.70;0.60;;;24.00;71.00;;;;;;5013393;28;20387;-72
2022/07/10 12:42:31;;;;;;;1.88;0.47;;;24.00;71.00;;;;;;5013052;28;20025;-72
2022/07/10 12:45:09;;;;;;;1.38;0.40;;;24.00;70.90;;;;;;5013182;28;20089;-72
2022/07/10 12:47:48;;;;;;;1.50;0.40;;;24.10;71.00;;;;;;5012724;28;20054;-72
2022/07/10 12:50:17;;;;;;;1.67;0.60;;;24.10;71.00;;;;;;4995625;28;20026;-72
2022/07/10 12:52:42;;;;;;;3.08;0.75;;;24.10;70.90;;;;;;5013297;28;20032;-72
2022/07/10 12:55:11;;;;;;;2.83;0.47;;;24.10;70.30;;;;;;5013263;28;20026;-72
2022/07/10 12:57:49;;;;;;;3.55;0.40;;;24.10;69.80;;;;;;5013270;28;20034;-72
2022/07/10 13:00:18;;;;;;;1.98;0.70;;;24.10;70.20;;;;;;5013154;28;20034;-72
2022/07/10 13:02:44;;;;;;;1.20;0.30;;;24.10;70.30;;;;;;5013342;28;20475;-72